Terminal Aerodrome Forecast
Issued by NWS

Home | Current Version | Previous Version | Text Only | Print | Product List | Glossary On
Versions: 1 2 3 4 5 6 7 8 9 10 11 12
000
FTUS46 KSEW 060552
TAFPAE
TAF
KPAE 060552Z 0606/0706 35004KT P6SM BKN130
     FM060900 VRB03KT P6SM FEW080 BKN130
     FM061800 20007KT P6SM FEW080 BKN130
     FM062100 24007KT P6SM FEW080 BKN130
     FM070000 31005KT P6SM SCT130=

USA.gov is the U.S. government's official web portal to all federal, state and local government web resources and services.